sensor_id;sensor_type;location;lat;lon;timestamp;temperature;humidity
47368;DHT22;34646;47.964;7.982;2022-10-15T00:05:39;18.70;76.10
47368;DHT22;34646;47.964;7.982;2022-10-15T00:11:40;18.80;76.10
47368;DHT22;34646;47.964;7.982;2022-10-15T00:17:41;18.70;76.00
47368;DHT22;34646;47.964;7.982;2022-10-15T00:23:42;18.70;76.00
47368;DHT22;34646;47.964;7.982;2022-10-15T00:29:42;18.70;76.00
47368;DHT22;34646;47.964;7.982;2022-10-15T00:35:43;18.70;76.00
47368;DHT22;34646;47.964;7.982;2022-10-15T00:41:44;18.70;76.00
47368;DHT22;34646;47.964;7.982;2022-10-15T00:47:47;18.70;75.90
47368;DHT22;34646;47.964;7.982;2022-10-15T00:53:51;18.70;76.50
47368;DHT22;34646;47.964;7.982;2022-10-15T00:59:56;18.70;75.90
47368;DHT22;34646;47.964;7.982;2022-10-15T01:05:58;18.70;75.90
47368;DHT22;34646;47.964;7.982;2022-10-15T01:11:59;18.70;75.90
47368;DHT22;34646;47.964;7.982;2022-10-15T01:18:14;18.70;75.80
47368;DHT22;34646;47.964;7.982;2022-10-15T01:30:41;18.70;75.80
47368;DHT22;34646;47.964;7.982;2022-10-15T01:37:06;18.70;75.80
47368;DHT22;34646;47.964;7.982;2022-10-15T01:43:11;18.70;75.80
47368;DHT22;34646;47.964;7.982;2022-10-15T01:49:46;18.70;75.70
47368;DHT22;34646;47.964;7.982;2022-10-15T01:55:47;18.70;75.80
47368;DHT22;34646;47.964;7.982;2022-10-15T02:01:49;18.70;75.80
47368;DHT22;34646;47.964;7.982;2022-10-15T02:14:04;18.70;75.80
47368;DHT22;34646;47.964;7.982;2022-10-15T02:20:13;18.70;75.70
47368;DHT22;34646;47.964;7.982;2022-10-15T02:26:16;18.70;75.70
47368;DHT22;34646;47.964;7.982;2022-10-15T02:32:20;18.70;75.70
47368;DHT22;34646;47.964;7.982;2022-10-15T02:38:24;18.70;75.70
47368;DHT22;34646;47.964;7.982;2022-10-15T02:44:26;18.70;75.70
47368;DHT22;34646;47.964;7.982;2022-10-15T02:50:28;18.70;75.70
47368;DHT22;34646;47.964;7.982;2022-10-15T02:56:29;18.70;75.60
47368;DHT22;34646;47.964;7.982;2022-10-15T03:02:30;18.70;75.70
47368;DHT22;34646;47.964;7.982;2022-10-15T03:08:31;18.70;75.60
47368;DHT22;34646;47.964;7.982;2022-10-15T03:14:35;18.70;75.60
47368;DHT22;34646;47.964;7.982;2022-10-15T03:20:36;18.70;75.60
47368;DHT22;34646;47.964;7.982;2022-10-15T03:26:37;18.70;75.60
47368;DHT22;34646;47.964;7.982;2022-10-15T03:32:38;18.70;75.60
47368;DHT22;34646;47.964;7.982;2022-10-15T03:38:39;18.70;75.60
47368;DHT22;34646;47.964;7.982;2022-10-15T03:44:45;18.70;75.60
47368;DHT22;34646;47.964;7.982;2022-10-15T03:50:49;18.70;75.60
47368;DHT22;34646;47.964;7.982;2022-10-15T03:56:51;18.70;75.60
47368;DHT22;34646;47.964;7.982;2022-10-15T04:03:01;18.70;75.60
47368;DHT22;34646;47.964;7.982;2022-10-15T04:09:03;18.70;75.60
47368;DHT22;34646;47.964;7.982;2022-10-15T04:15:04;18.70;75.60
47368;DHT22;34646;47.964;7.982;2022-10-15T04:21:05;18.70;75.50
47368;DHT22;34646;47.964;7.982;2022-10-15T04:27:07;18.70;75.60
47368;DHT22;34646;47.964;7.982;2022-10-15T04:33:08;18.60;75.50
47368;DHT22;34646;47.964;7.982;2022-10-15T04:39:09;18.70;76.20
47368;DHT22;34646;47.964;7.982;2022-10-15T04:45:14;18.70;75.50
47368;DHT22;34646;47.964;7.982;2022-10-15T04:51:19;18.70;75.50
47368;DHT22;34646;47.964;7.982;2022-10-15T04:57:41;18.70;75.50
47368;DHT22;34646;47.964;7.982;2022-10-15T05:03:44;18.60;75.40
47368;DHT22;34646;47.964;7.982;2022-10-15T05:09:45;18.60;75.40
47368;DHT22;34646;47.964;7.982;2022-10-15T05:15:46;18.60;75.50
47368;DHT22;34646;47.964;7.982;2022-10-15T05:21:47;18.60;75.40
47368;DHT22;34646;47.964;7.982;2022-10-15T05:27:57;18.60;75.40
47368;DHT22;34646;47.964;7.982;2022-10-15T05:33:57;18.60;75.40
47368;DHT22;34646;47.964;7.982;2022-10-15T05:40:07;18.60;75.50
47368;DHT22;34646;47.964;7.982;2022-10-15T05:46:08;18.60;75.50
47368;DHT22;34646;47.964;7.982;2022-10-15T05:52:08;18.60;75.50
47368;DHT22;34646;47.964;7.982;2022-10-15T05:58:40;18.70;75.50
47368;DHT22;34646;47.964;7.982;2022-10-15T06:04:41;18.60;75.50
47368;DHT22;34646;47.964;7.982;2022-10-15T06:10:42;18.60;75.50
47368;DHT22;34646;47.964;7.982;2022-10-15T06:16:43;18.60;75.50
47368;DHT22;34646;47.964;7.982;2022-10-15T06:22:43;18.60;75.50
47368;DHT22;34646;47.964;7.982;2022-10-15T06:28:44;18.60;75.50
47368;DHT22;34646;47.964;7.982;2022-10-15T06:34:45;18.60;75.50
47368;DHT22;34646;47.964;7.982;2022-10-15T06:40:45;18.60;75.50
47368;DHT22;34646;47.964;7.982;2022-10-15T06:46:46;18.60;75.50
47368;DHT22;34646;47.964;7.982;2022-10-15T06:52:46;18.60;75.50
47368;DHT22;34646;47.964;7.982;2022-10-15T06:58:47;18.60;75.50
47368;DHT22;34646;47.964;7.982;2022-10-15T07:04:48;18.60;75.50
47368;DHT22;34646;47.964;7.982;2022-10-15T07:10:51;18.70;75.40
47368;DHT22;34646;47.964;7.982;2022-10-15T07:16:55;18.70;76.00
47368;DHT22;34646;47.964;7.982;2022-10-15T07:22:57;18.60;75.40
47368;DHT22;34646;47.964;7.982;2022-10-15T07:29:03;18.60;75.40
47368;DHT22;34646;47.964;7.982;2022-10-15T07:35:04;18.60;75.40
47368;DHT22;34646;47.964;7.982;2022-10-15T07:41:07;18.60;75.60
47368;DHT22;34646;47.964;7.982;2022-10-15T07:47:15;18.70;75.60
47368;DHT22;34646;47.964;7.982;2022-10-15T07:53:16;18.60;75.50
47368;DHT22;34646;47.964;7.982;2022-10-15T07:59:17;18.60;75.30
47368;DHT22;34646;47.964;7.982;2022-10-15T08:05:17;18.60;75.10
47368;DHT22;34646;47.964;7.982;2022-10-15T08:11:18;18.60;75.00
47368;DHT22;34646;47.964;7.982;2022-10-15T08:17:19;18.60;74.80
47368;DHT22;34646;47.964;7.982;2022-10-15T08:23:19;18.60;74.70
47368;DHT22;34646;47.964;7.982;2022-10-15T08:29:20;18.60;74.60
47368;DHT22;34646;47.964;7.982;2022-10-15T08:35:21;18.70;74.60
47368;DHT22;34646;47.964;7.982;2022-10-15T08:47:49;18.80;74.50
47368;DHT22;34646;47.964;7.982;2022-10-15T08:54:14;18.80;74.50
47368;DHT22;34646;47.964;7.982;2022-10-15T09:00:22;18.80;74.60
47368;DHT22;34646;47.964;7.982;2022-10-15T09:06:26;18.80;74.70
47368;DHT22;34646;47.964;7.982;2022-10-15T09:18:51;18.80;74.80
47368;DHT22;34646;47.964;7.982;2022-10-15T09:24:53;18.80;74.80
47368;DHT22;34646;47.964;7.982;2022-10-15T09:30:56;18.90;74.80
47368;DHT22;34646;47.964;7.982;2022-10-15T09:37:01;18.90;74.80
47368;DHT22;34646;47.964;7.982;2022-10-15T09:43:05;18.90;74.80
47368;DHT22;34646;47.964;7.982;2022-10-15T09:49:15;18.90;74.80
47368;DHT22;34646;47.964;7.982;2022-10-15T09:55:36;18.90;74.80
47368;DHT22;34646;47.964;7.982;2022-10-15T10:02:00;19.00;74.80
47368;DHT22;34646;47.964;7.982;2022-10-15T10:08:23;19.00;74.90
47368;DHT22;34646;47.964;7.982;2022-10-15T10:20:34;19.00;75.10
47368;DHT22;34646;47.964;7.982;2022-10-15T10:26:34;19.00;75.30
47368;DHT22;34646;47.964;7.982;2022-10-15T10:32:35;19.10;75.20
47368;DHT22;34646;47.964;7.982;2022-10-15T10:38:38;19.20;75.20
47368;DHT22;34646;47.964;7.982;2022-10-15T10:44:41;19.20;75.20
47368;DHT22;34646;47.964;7.982;2022-10-15T10:50:46;19.30;75.20
47368;DHT22;34646;47.964;7.982;2022-10-15T10:56:47;19.30;75.30
47368;DHT22;34646;47.964;7.982;2022-10-15T11:02:49;19.30;75.30
47368;DHT22;34646;47.964;7.982;2022-10-15T11:09:09;19.40;75.60
47368;DHT22;34646;47.964;7.982;2022-10-15T11:47:40;19.50;75.60
47368;DHT22;34646;47.964;7.982;2022-10-15T11:54:08;19.70;75.40
47368;DHT22;34646;47.964;7.982;2022-10-15T12:00:38;19.70;75.30
47368;DHT22;34646;47.964;7.982;2022-10-15T12:06:46;19.70;75.40
47368;DHT22;34646;47.964;7.982;2022-10-15T12:13:08;19.60;75.60
47368;DHT22;34646;47.964;7.982;2022-10-15T12:19:18;19.60;75.90
47368;DHT22;34646;47.964;7.982;2022-10-15T12:31:52;19.60;75.70
47368;DHT22;34646;47.964;7.982;2022-10-15T12:38:27;19.60;75.80
47368;DHT22;34646;47.964;7.982;2022-10-15T12:44:30;19.60;75.80
47368;DHT22;34646;47.964;7.982;2022-10-15T12:50:33;19.60;75.80
47368;DHT22;34646;47.964;7.982;2022-10-15T12:56:39;19.60;75.70
47368;DHT22;34646;47.964;7.982;2022-10-15T13:02:45;19.60;75.60
47368;DHT22;34646;47.964;7.982;2022-10-15T13:15:16;19.50;75.50
47368;DHT22;34646;47.964;7.982;2022-10-15T13:21:17;19.50;75.50
47368;DHT22;34646;47.964;7.982;2022-10-15T13:33:26;19.50;75.50
47368;DHT22;34646;47.964;7.982;2022-10-15T13:39:32;19.50;75.50
47368;DHT22;34646;47.964;7.982;2022-10-15T13:45:34;19.60;75.60
47368;DHT22;34646;47.964;7.982;2022-10-15T13:51:40;19.60;75.50
47368;DHT22;34646;47.964;7.982;2022-10-15T13:57:44;19.60;75.50
47368;DHT22;34646;47.964;7.982;2022-10-15T14:03:48;19.60;75.40
47368;DHT22;34646;47.964;7.982;2022-10-15T14:09:52;19.60;75.30
47368;DHT22;34646;47.964;7.982;2022-10-15T14:15:58;19.70;75.10
47368;DHT22;34646;47.964;7.982;2022-10-15T14:22:00;19.70;75.00
47368;DHT22;34646;47.964;7.982;2022-10-15T14:28:00;19.70;75.10
47368;DHT22;34646;47.964;7.982;2022-10-15T14:34:01;19.80;75.10
47368;DHT22;34646;47.964;7.982;2022-10-15T14:46:16;19.70;75.30
47368;DHT22;34646;47.964;7.982;2022-10-15T14:52:18;19.70;75.40
47368;DHT22;34646;47.964;7.982;2022-10-15T14:58:22;19.70;75.40
47368;DHT22;34646;47.964;7.982;2022-10-15T15:04:34;19.70;75.40
47368;DHT22;34646;47.964;7.982;2022-10-15T15:10:35;19.70;75.30
47368;DHT22;34646;47.964;7.982;2022-10-15T15:16:36;19.70;75.40
47368;DHT22;34646;47.964;7.982;2022-10-15T15:22:37;19.70;75.20
47368;DHT22;34646;47.964;7.982;2022-10-15T15:28:38;19.80;75.20
47368;DHT22;34646;47.964;7.982;2022-10-15T15:34:39;19.80;75.20
47368;DHT22;34646;47.964;7.982;2022-10-15T15:40:39;19.70;75.30
47368;DHT22;34646;47.964;7.982;2022-10-15T15:46:40;19.70;75.40
47368;DHT22;34646;47.964;7.982;2022-10-15T15:52:42;19.70;75.40
47368;DHT22;34646;47.964;7.982;2022-10-15T15:58:42;19.70;75.50
47368;DHT22;34646;47.964;7.982;2022-10-15T16:04:43;19.70;75.50
47368;DHT22;34646;47.964;7.982;2022-10-15T16:10:45;19.70;75.60
47368;DHT22;34646;47.964;7.982;2022-10-15T16:16:45;19.70;75.60
47368;DHT22;34646;47.964;7.982;2022-10-15T16:22:51;19.70;75.70
47368;DHT22;34646;47.964;7.982;2022-10-15T16:28:52;19.70;75.80
47368;DHT22;34646;47.964;7.982;2022-10-15T16:34:53;19.70;76.10
47368;DHT22;34646;47.964;7.982;2022-10-15T16:40:53;19.70;76.40
47368;DHT22;34646;47.964;7.982;2022-10-15T16:46:54;19.70;76.70
47368;DHT22;34646;47.964;7.982;2022-10-15T16:52:54;19.70;76.50
47368;DHT22;34646;47.964;7.982;2022-10-15T16:58:55;19.70;76.70
47368;DHT22;34646;47.964;7.982;2022-10-15T17:04:56;19.70;76.90
47368;DHT22;34646;47.964;7.982;2022-10-15T17:10:57;19.70;77.00
47368;DHT22;34646;47.964;7.982;2022-10-15T17:16:57;19.70;77.40
47368;DHT22;34646;47.964;7.982;2022-10-15T17:22:58;19.70;77.50
47368;DHT22;34646;47.964;7.982;2022-10-15T17:28:59;19.70;77.30
47368;DHT22;34646;47.964;7.982;2022-10-15T17:34:59;19.70;77.30
47368;DHT22;34646;47.964;7.982;2022-10-15T17:41:07;19.70;77.40
47368;DHT22;34646;47.964;7.982;2022-10-15T17:47:08;19.70;77.50
47368;DHT22;34646;47.964;7.982;2022-10-15T17:53:08;19.70;77.70
47368;DHT22;34646;47.964;7.982;2022-10-15T17:59:10;19.70;77.80
47368;DHT22;34646;47.964;7.982;2022-10-15T18:05:11;19.70;78.10
47368;DHT22;34646;47.964;7.982;2022-10-15T18:11:15;19.70;77.70
47368;DHT22;34646;47.964;7.982;2022-10-15T18:17:17;19.70;77.30
47368;DHT22;34646;47.964;7.982;2022-10-15T18:23:18;19.70;77.10
47368;DHT22;34646;47.964;7.982;2022-10-15T18:29:19;19.70;77.00
47368;DHT22;34646;47.964;7.982;2022-10-15T18:35:21;19.70;76.80
47368;DHT22;34646;47.964;7.982;2022-10-15T18:41:24;19.70;76.70
47368;DHT22;34646;47.964;7.982;2022-10-15T18:47:27;19.70;76.50
47368;DHT22;34646;47.964;7.982;2022-10-15T18:53:27;19.70;76.40
47368;DHT22;34646;47.964;7.982;2022-10-15T18:59:31;19.70;76.40
47368;DHT22;34646;47.964;7.982;2022-10-15T19:05:31;19.70;76.30
47368;DHT22;34646;47.964;7.982;2022-10-15T19:11:33;19.70;76.30
47368;DHT22;34646;47.964;7.982;2022-10-15T19:17:35;19.70;76.40
47368;DHT22;34646;47.964;7.982;2022-10-15T19:23:36;19.70;76.50
47368;DHT22;34646;47.964;7.982;2022-10-15T19:29:38;19.70;76.50
47368;DHT22;34646;47.964;7.982;2022-10-15T19:35:39;19.70;76.80
47368;DHT22;34646;47.964;7.982;2022-10-15T19:41:40;19.70;76.80
47368;DHT22;34646;47.964;7.982;2022-10-15T19:47:42;19.70;76.90
47368;DHT22;34646;47.964;7.982;2022-10-15T19:53:43;19.70;77.10
47368;DHT22;34646;47.964;7.982;2022-10-15T19:59:44;19.70;76.90
47368;DHT22;34646;47.964;7.982;2022-10-15T20:05:45;19.70;77.10
47368;DHT22;34646;47.964;7.982;2022-10-15T20:11:46;19.70;77.10
47368;DHT22;34646;47.964;7.982;2022-10-15T20:17:46;19.70;77.30
47368;DHT22;34646;47.964;7.982;2022-10-15T20:23:47;19.70;77.30
47368;DHT22;34646;47.964;7.982;2022-10-15T20:29:48;19.70;77.20
47368;DHT22;34646;47.964;7.982;2022-10-15T20:35:49;19.70;77.30
47368;DHT22;34646;47.964;7.982;2022-10-15T20:41:50;19.70;77.40
47368;DHT22;34646;47.964;7.982;2022-10-15T20:47:52;19.70;77.30
47368;DHT22;34646;47.964;7.982;2022-10-15T20:53:52;19.70;77.40
47368;DHT22;34646;47.964;7.982;2022-10-15T20:59:53;19.70;77.40
47368;DHT22;34646;47.964;7.982;2022-10-15T21:05:54;19.70;77.40
47368;DHT22;34646;47.964;7.982;2022-10-15T21:11:54;19.70;77.40
47368;DHT22;34646;47.964;7.982;2022-10-15T21:17:55;19.70;77.30
47368;DHT22;34646;47.964;7.982;2022-10-15T21:23:57;19.70;77.50
47368;DHT22;34646;47.964;7.982;2022-10-15T21:29:58;19.70;77.30
47368;DHT22;34646;47.964;7.982;2022-10-15T21:36:28;19.70;77.20
47368;DHT22;34646;47.964;7.982;2022-10-15T21:42:29;19.70;77.20
47368;DHT22;34646;47.964;7.982;2022-10-15T21:48:30;19.70;77.20
47368;DHT22;34646;47.964;7.982;2022-10-15T21:54:33;19.70;77.00
47368;DHT22;34646;47.964;7.982;2022-10-15T22:00:33;19.70;76.80
47368;DHT22;34646;47.964;7.982;2022-10-15T22:06:35;19.70;76.70
47368;DHT22;34646;47.964;7.982;2022-10-15T22:12:36;19.70;76.70
47368;DHT22;34646;47.964;7.982;2022-10-15T22:18:37;19.70;76.70
47368;DHT22;34646;47.964;7.982;2022-10-15T22:24:38;19.70;76.70
47368;DHT22;34646;47.964;7.982;2022-10-15T22:30:39;19.70;76.60
47368;DHT22;34646;47.964;7.982;2022-10-15T22:36:40;19.70;76.60
47368;DHT22;34646;47.964;7.982;2022-10-15T22:42:40;19.70;76.50
47368;DHT22;34646;47.964;7.982;2022-10-15T22:48:41;19.70;76.50
47368;DHT22;34646;47.964;7.982;2022-10-15T22:54:42;19.70;76.50
47368;DHT22;34646;47.964;7.982;2022-10-15T23:00:43;19.60;76.40
47368;DHT22;34646;47.964;7.982;2022-10-15T23:06:43;19.60;76.40
47368;DHT22;34646;47.964;7.982;2022-10-15T23:12:44;19.60;76.40
47368;DHT22;34646;47.964;7.982;2022-10-15T23:18:47;19.60;76.40
47368;DHT22;34646;47.964;7.982;2022-10-15T23:24:51;19.60;76.40
47368;DHT22;34646;47.964;7.982;2022-10-15T23:30:51;19.60;76.30
47368;DHT22;34646;47.964;7.982;2022-10-15T23:36:52;19.60;76.30
47368;DHT22;34646;47.964;7.982;2022-10-15T23:42:53;19.60;76.30
47368;DHT22;34646;47.964;7.982;2022-10-15T23:48:54;19.60;76.30
47368;DHT22;34646;47.964;7.982;2022-10-15T23:54:54;19.60;76.30
